Time;durP1;ratioP1;P1;durP2;ratioP2;P2;SDS_P1;SDS_P2;PMS_P1;PMS_P2;Temp;Humidity;BMP_temperature;BMP_pressure;BME280_temperature;BME280_humidity;BME280_pressure;Samples;Min_cycle;Max_cycle;Signal;HPM_P1;HPM_P2
2021/11/06 00:02:20;;;;;;;55.83;21.80;;;5.10;99.90;;;;;;5051878;28;20386;-56
2021/11/06 00:04:47;;;;;;;174.52;32.15;;;4.90;99.90;;;;;;5050737;28;20912;-56
2021/11/06 00:07:12;;;;;;;49.67;20.87;;;5.00;99.90;;;;;;5051090;28;20405;-56
2021/11/06 00:09:38;;;;;;;40.90;19.77;;;5.10;99.90;;;;;;5048684;28;20420;-57
2021/11/06 00:12:05;;;;;;;44.05;21.20;;;5.60;99.90;;;;;;5047979;28;20417;-57
2021/11/06 00:14:31;;;;;;;49.00;21.13;;;5.20;99.90;;;;;;5081231;28;20413;-58
2021/11/06 00:16:57;;;;;;;49.55;24.33;;;5.10;99.90;;;;;;5048111;28;20480;-56
2021/11/06 00:19:23;;;;;;;50.55;23.45;;;5.00;99.90;;;;;;5051429;28;20455;-57
2021/11/06 00:21:49;;;;;;;60.27;22.60;;;5.00;99.90;;;;;;5050539;28;20854;-57
2021/11/06 00:24:14;;;;;;;124.82;30.33;;;5.00;99.90;;;;;;5050857;28;20770;-56
2021/11/06 00:26:40;;;;;;;118.18;28.17;;;5.00;99.90;;;;;;5049847;28;20764;-57
2021/11/06 00:29:06;;;;;;;117.50;28.40;;;5.10;99.90;;;;;;5050871;28;20869;-57
2021/11/06 00:31:31;;;;;;;102.53;28.48;;;5.10;99.90;;;;;;5045725;28;20421;-58
2021/11/06 00:33:57;;;;;;;143.63;31.67;;;4.90;99.90;;;;;;5047216;28;20750;-56
2021/11/06 00:36:24;;;;;;;84.07;25.37;;;4.80;99.90;;;;;;5050812;28;20393;-56
2021/11/06 00:38:50;;;;;;;65.82;23.08;;;6.10;99.90;;;;;;5049962;28;20471;-57
2021/11/06 00:41:17;;;;;;;102.22;25.67;;;4.70;99.90;;;;;;5049854;28;20395;-57
2021/11/06 00:43:42;;;;;;;68.35;23.88;;;4.70;99.90;;;;;;5048202;28;20915;-56
2021/11/06 00:46:08;;;;;;;83.90;24.75;;;4.70;99.90;;;;;;5051287;28;20390;-57
2021/11/06 00:48:34;;;;;;;74.38;23.48;;;4.60;99.90;;;;;;5045519;28;20401;-57
2021/11/06 00:51:00;;;;;;;68.77;22.90;;;4.60;99.90;;;;;;5049857;28;20386;-56
2021/11/06 00:53:25;;;;;;;77.07;23.50;;;4.40;99.90;;;;;;5050182;28;20451;-56
2021/11/06 00:55:51;;;;;;;60.53;22.02;;;4.30;99.90;;;;;;5049780;28;20546;-57
2021/11/06 00:58:17;;;;;;;57.47;21.50;;;4.20;99.90;;;;;;5051056;28;20509;-57
2021/11/06 01:00:42;;;;;;;87.18;22.50;;;4.20;99.90;;;;;;5050654;28;20381;-56
2021/11/06 01:03:08;;;;;;;54.83;21.53;;;4.30;99.90;;;;;;5051081;28;20378;-56
2021/11/06 01:05:34;;;;;;;44.35;19.98;;;4.20;99.90;;;;;;5050407;28;20413;-58
2021/11/06 01:07:59;;;;;;;39.50;19.73;;;4.10;99.90;;;;;;5051107;28;20424;-56
2021/11/06 01:10:25;;;;;;;42.33;18.73;;;5.20;99.90;;;;;;5049610;28;20786;-56
2021/11/06 01:12:51;;;;;;;39.35;18.20;;;4.10;99.90;;;;;;5042736;28;20659;-56
2021/11/06 01:15:17;;;;;;;31.83;18.75;;;4.00;99.90;;;;;;5042430;28;20376;-56
2021/11/06 01:17:43;;;;;;;35.95;19.40;;;5.30;99.90;;;;;;5038210;28;20381;-56
2021/11/06 01:20:09;;;;;;;36.15;19.02;;;4.60;99.90;;;;;;5050762;28;20377;-57
2021/11/06 01:22:36;;;;;;;37.38;19.23;;;4.10;99.90;;;;;;5050055;28;20862;-58
2021/11/06 01:25:03;;;;;;;36.17;18.88;;;4.00;99.90;;;;;;5050864;28;20409;-57
2021/11/06 01:27:29;;;;;;;54.10;23.92;;;3.90;99.90;;;;;;5050909;28;20438;-57
2021/11/06 01:29:55;;;;;;;48.17;21.40;;;4.30;99.90;;;;;;5049828;28;20461;-57
2021/11/06 01:32:21;;;;;;;62.60;20.50;;;3.90;99.90;;;;;;5050405;28;20389;-57
2021/11/06 01:34:46;;;;;;;38.85;19.13;;;3.90;99.90;;;;;;5050007;28;20389;-57
2021/11/06 01:37:12;;;;;;;40.40;19.23;;;3.90;99.90;;;;;;5050435;28;20394;-56
2021/11/06 01:39:38;;;;;;;40.20;18.63;;;3.90;99.90;;;;;;5048638;28;20478;-57
2021/11/06 01:42:04;;;;;;;42.13;19.30;;;3.80;99.90;;;;;;5049946;28;20884;-57
2021/11/06 01:44:30;;;;;;;35.13;19.05;;;3.80;99.90;;;;;;5049827;28;20920;-57
2021/11/06 01:46:56;;;;;;;44.88;18.55;;;3.80;99.90;;;;;;5049631;28;20488;-57
2021/11/06 01:49:22;;;;;;;42.20;17.27;;;3.80;99.90;;;;;;5050733;28;20421;-56
2021/11/06 01:51:49;;;;;;;37.55;17.42;;;3.70;99.90;;;;;;5049451;28;20418;-56
2021/11/06 01:54:14;;;;;;;41.77;18.80;;;3.60;99.90;;;;;;5050171;28;20385;-56
2021/11/06 01:56:42;;;;;;;44.93;19.63;;;3.50;99.90;;;;;;5049696;28;20382;-57
2021/11/06 01:59:08;;;;;;;34.38;17.92;;;3.60;99.90;;;;;;5050096;28;20476;-56
2021/11/06 02:01:35;;;;;;;28.67;17.07;;;4.50;99.90;;;;;;5049698;28;20443;-58
2021/11/06 02:04:01;;;;;;;31.50;18.00;;;3.40;99.90;;;;;;5049742;28;20409;-57
2021/11/06 02:06:27;;;;;;;27.27;15.82;;;4.40;99.90;;;;;;5048724;28;20425;-57
2021/11/06 02:08:53;;;;;;;25.90;15.82;;;3.20;99.90;;;;;;5049471;28;20980;-56
2021/11/06 02:11:19;;;;;;;25.67;14.33;;;3.80;99.90;;;;;;5049931;28;20405;-57
2021/11/06 02:13:45;;;;;;;25.75;15.18;;;4.60;99.90;;;;;;5049262;28;20382;-57
2021/11/06 02:16:10;;;;;;;27.17;15.20;;;3.20;99.90;;;;;;5049683;28;20853;-57
2021/11/06 02:18:36;;;;;;;32.33;17.55;;;4.20;99.90;;;;;;5049011;28;20385;-57
2021/11/06 02:21:06;;;;;;;33.17;17.33;;;3.90;99.90;;;;;;5049830;28;20845;-57
2021/11/06 02:23:34;;;;;;;54.05;23.42;;;4.30;99.90;;;;;;5049352;28;20385;-58
2021/11/06 02:26:00;;;;;;;60.88;21.23;;;3.30;99.90;;;;;;5049778;28;20385;-57
2021/11/06 02:28:26;;;;;;;51.65;19.77;;;3.40;99.90;;;;;;5049810;28;20373;-57
2021/11/06 02:30:52;;;;;;;60.37;20.33;;;3.40;99.90;;;;;;5048676;28;20995;-57
2021/11/06 02:33:17;;;;;;;66.85;21.73;;;3.50;99.90;;;;;;5049913;28;20737;-57
2021/11/06 02:35:43;;;;;;;84.57;23.57;;;3.50;99.90;;;;;;5048643;28;20382;-57
2021/11/06 02:38:11;;;;;;;56.75;19.92;;;3.50;99.90;;;;;;5049290;28;20414;-57
2021/11/06 02:40:37;;;;;;;82.20;21.38;;;3.50;99.90;;;;;;5048999;28;20389;-58
2021/11/06 02:43:03;;;;;;;57.85;19.73;;;3.60;99.90;;;;;;5049649;28;20373;-57
2021/11/06 02:45:29;;;;;;;79.00;20.95;;;3.60;99.90;;;;;;5049257;28;20401;-57
2021/11/06 02:47:56;;;;;;;98.53;23.25;;;4.20;99.90;;;;;;5048811;28;20661;-57
2021/11/06 02:50:21;;;;;;;112.50;22.23;;;3.60;99.90;;;;;;5049497;28;20396;-57
2021/11/06 02:52:47;;;;;;;104.78;25.15;;;4.40;99.90;;;;;;5048254;28;20893;-57
2021/11/06 02:55:13;;;;;;;100.63;22.60;;;3.50;99.90;;;;;;5049313;28;20480;-57
2021/11/06 02:57:39;;;;;;;43.13;18.15;;;5.00;99.90;;;;;;5048534;28;20772;-57
2021/11/06 03:00:07;;;;;;;46.65;18.35;;;3.50;99.90;;;;;;5049457;28;20504;-57
2021/11/06 03:02:33;;;;;;;48.75;18.60;;;3.40;99.90;;;;;;5042515;28;20389;-58
2021/11/06 03:05:06;;;;;;;61.97;19.77;;;3.30;99.90;;;;;;5038384;28;20454;-57
2021/11/06 03:07:33;;;;;;;60.00;19.75;;;3.20;99.90;;;;;;5033815;28;20414;-57
2021/11/06 03:09:59;;;;;;;77.07;20.23;;;3.10;99.90;;;;;;5028486;28;20482;-57
2021/11/06 03:12:25;;;;;;;77.15;21.60;;;3.20;99.90;;;;;;5029222;28;20823;-57
2021/11/06 03:14:51;;;;;;;53.33;18.48;;;3.40;99.90;;;;;;5028734;28;20402;-57
2021/11/06 03:17:18;;;;;;;53.33;19.60;;;3.90;99.90;;;;;;5029090;28;20375;-57
2021/11/06 03:19:43;;;;;;;51.85;19.05;;;3.50;99.90;;;;;;5028342;28;20883;-57
2021/11/06 03:22:11;;;;;;;50.88;18.63;;;2.90;99.90;;;;;;5029235;28;20414;-57
2021/11/06 03:24:37;;;;;;;58.00;19.77;;;2.80;99.90;;;;;;5028460;28;20406;-58
2021/11/06 03:27:04;;;;;;;75.55;21.13;;;2.80;99.90;;;;;;5029353;28;20434;-57
2021/11/06 03:29:30;;;;;;;80.05;20.63;;;2.80;99.90;;;;;;5028906;28;20894;-57
2021/11/06 03:31:56;;;;;;;50.83;19.05;;;2.80;99.90;;;;;;5028406;28;21043;-57
2021/11/06 03:34:21;;;;;;;51.03;18.63;;;2.80;99.90;;;;;;5029319;28;20867;-57
2021/11/06 03:36:47;;;;;;;63.53;21.58;;;2.80;99.90;;;;;;5043490;28;20454;-57
2021/11/06 03:39:13;;;;;;;77.60;21.40;;;2.90;99.90;;;;;;5029107;28;20466;-58
2021/11/06 03:41:39;;;;;;;87.93;22.43;;;3.10;99.90;;;;;;5028568;28;20375;-57
2021/11/06 03:44:05;;;;;;;72.45;21.58;;;3.70;99.90;;;;;;5028748;28;20418;-57
2021/11/06 03:46:32;;;;;;;143.47;28.10;;;3.20;99.90;;;;;;5029013;28;20517;-57
2021/11/06 03:48:58;;;;;;;148.02;25.90;;;3.30;99.90;;;;;;5028526;28;20490;-57
2021/11/06 03:51:24;;;;;;;136.80;28.02;;;3.40;99.90;;;;;;5028845;28;20514;-57
2021/11/06 03:53:51;;;;;;;113.20;25.53;;;3.60;99.90;;;;;;5027227;28;20908;-57
2021/11/06 03:56:18;;;;;;;139.57;26.48;;;3.70;99.90;;;;;;5028793;28;20406;-57
2021/11/06 03:58:43;;;;;;;139.02;27.15;;;3.80;99.90;;;;;;5027923;28;20394;-57
2021/11/06 04:01:09;;;;;;;208.00;30.67;;;3.90;99.90;;;;;;5028743;28;20376;-57
2021/11/06 04:03:35;;;;;;;287.50;38.28;;;4.10;99.90;;;;;;5028563;28;20866;-59
2021/11/06 04:06:01;;;;;;;231.30;38.95;;;5.20;99.90;;;;;;5028995;28;20383;-57
2021/11/06 04:08:27;;;;;;;140.60;27.33;;;4.30;99.90;;;;;;5032450;28;20748;-57
2021/11/06 04:10:53;;;;;;;242.87;37.77;;;4.40;99.90;;;;;;5031387;28;20415;-57
2021/11/06 04:13:18;;;;;;;283.30;37.83;;;4.50;99.90;;;;;;5031997;28;20468;-57
2021/11/06 04:15:44;;;;;;;167.13;31.30;;;4.60;99.90;;;;;;5031405;28;20388;-57
2021/11/06 04:18:10;;;;;;;190.27;34.38;;;4.70;99.90;;;;;;5032140;28;20405;-57
2021/11/06 04:20:37;;;;;;;160.82;31.92;;;5.70;99.90;;;;;;5032005;28;20454;-59
2021/11/06 04:23:03;;;;;;;198.35;30.60;;;4.90;99.90;;;;;;5031851;28;20415;-57
2021/11/06 04:25:29;;;;;;;294.38;37.92;;;4.60;99.90;;;;;;5032132;28;20424;-57
2021/11/06 04:27:54;;;;;;;454.60;52.80;;;4.50;99.90;;;;;;5031076;28;20391;-57
2021/11/06 04:30:20;;;;;;;549.97;59.05;;;4.60;99.90;;;;;;5031653;28;20371;-57
2021/11/06 04:32:46;;;;;;;284.52;35.72;;;4.80;99.90;;;;;;5031042;28;20379;-57
2021/11/06 04:35:11;;;;;;;293.50;36.87;;;4.80;99.90;;;;;;5031516;28;20387;-57
2021/11/06 04:37:38;;;;;;;146.15;24.88;;;4.60;99.90;;;;;;5038048;28;20398;-58
2021/11/06 04:40:08;;;;;;;139.60;24.83;;;4.50;99.90;;;;;;5051688;28;20421;-57
2021/11/06 04:42:34;;;;;;;512.92;59.95;;;4.50;99.90;;;;;;5052045;28;20381;-57
2021/11/06 04:45:00;;;;;;;283.37;36.00;;;4.50;99.90;;;;;;5050532;28;20397;-57
2021/11/06 04:47:26;;;;;;;202.57;28.77;;;4.60;99.90;;;;;;5051188;28;20401;-57
2021/11/06 04:49:51;;;;;;;141.85;26.80;;;4.80;99.90;;;;;;5050735;28;20386;-57
2021/11/06 04:52:17;;;;;;;123.67;24.20;;;4.70;99.90;;;;;;5041913;28;20391;-57
2021/11/06 04:54:43;;;;;;;213.77;30.60;;;4.60;99.90;;;;;;5034784;28;20859;-57
2021/11/06 04:57:09;;;;;;;130.40;26.00;;;4.70;99.90;;;;;;5050802;28;20388;-57
2021/11/06 04:59:34;;;;;;;239.50;32.23;;;4.60;99.90;;;;;;5045047;28;20383;-57
2021/11/06 05:02:01;;;;;;;214.27;28.45;;;4.60;99.90;;;;;;5062483;28;20486;-57
2021/11/06 05:04:27;;;;;;;233.18;33.10;;;4.70;99.90;;;;;;5031220;28;20423;-57
2021/11/06 05:06:53;;;;;;;283.13;34.97;;;4.70;99.90;;;;;;5030354;28;20395;-57
2021/11/06 05:09:19;;;;;;;166.13;25.38;;;4.80;99.90;;;;;;5039495;28;20479;-57
2021/11/06 05:11:45;;;;;;;199.40;32.75;;;4.70;99.90;;;;;;5039760;28;20405;-57
2021/11/06 05:14:10;;;;;;;223.88;33.45;;;4.60;99.90;;;;;;5045877;28;20383;-56
2021/11/06 05:16:36;;;;;;;148.33;23.80;;;4.70;99.90;;;;;;5029686;28;20909;-58
2021/11/06 05:19:02;;;;;;;122.63;23.73;;;4.50;99.90;;;;;;5029364;28;20815;-56
2021/11/06 05:21:35;;;;;;;127.55;24.33;;;6.10;99.90;;;;;;5031133;28;20379;-56
2021/11/06 05:24:02;;;;;;;337.92;36.63;;;5.30;99.90;;;;;;5034181;28;20415;-56
2021/11/06 05:26:28;;;;;;;172.02;29.75;;;4.50;99.90;;;;;;5039342;28;20402;-56
2021/11/06 05:28:54;;;;;;;142.70;25.23;;;4.60;99.90;;;;;;5042631;28;20373;-56
2021/11/06 05:31:21;;;;;;;206.47;29.50;;;4.50;99.90;;;;;;5047408;28;20372;-56
2021/11/06 05:33:46;;;;;;;317.95;42.10;;;4.70;99.90;;;;;;5029968;28;20387;-56
2021/11/06 05:36:12;;;;;;;237.15;33.63;;;4.80;99.90;;;;;;5030854;28;20396;-56
2021/11/06 05:38:38;;;;;;;155.07;25.77;;;5.30;99.90;;;;;;5030613;28;20441;-58
2021/11/06 05:41:04;;;;;;;119.18;22.27;;;4.80;99.90;;;;;;5029983;28;20469;-56
2021/11/06 05:43:29;;;;;;;169.80;27.75;;;4.50;99.90;;;;;;5030522;28;20390;-56
2021/11/06 05:45:55;;;;;;;129.60;24.17;;;4.50;99.90;;;;;;5029411;28;20755;-56
2021/11/06 05:48:22;;;;;;;134.63;23.77;;;4.50;99.90;;;;;;5030699;28;20454;-56
2021/11/06 05:50:48;;;;;;;139.48;24.40;;;4.30;99.90;;;;;;5029747;28;20423;-56
2021/11/06 05:53:14;;;;;;;234.77;31.80;;;4.30;99.90;;;;;;5030203;28;20407;-57
2021/11/06 05:55:40;;;;;;;200.47;30.77;;;4.30;99.90;;;;;;5029616;28;20839;-58
2021/11/06 05:58:06;;;;;;;107.80;21.30;;;4.30;99.90;;;;;;5030041;28;20390;-56
2021/11/06 06:00:32;;;;;;;160.02;23.10;;;4.40;99.90;;;;;;5030078;28;20457;-56
2021/11/06 06:02:58;;;;;;;156.25;26.45;;;5.60;99.90;;;;;;5029385;28;20510;-56
2021/11/06 06:05:24;;;;;;;100.97;21.02;;;4.30;99.90;;;;;;5029907;28;20479;-56
2021/11/06 06:07:50;;;;;;;124.03;22.77;;;4.30;99.90;;;;;;5029383;28;20918;-56
2021/11/06 06:10:16;;;;;;;180.73;23.50;;;4.20;99.90;;;;;;5030088;28;20569;-56
2021/11/06 06:12:42;;;;;;;265.27;36.75;;;4.20;99.90;;;;;;5028122;28;20851;-62
2021/11/06 06:15:09;;;;;;;332.85;45.75;;;4.20;99.90;;;;;;5029787;28;20387;-55
2021/11/06 06:17:36;;;;;;;248.57;33.70;;;4.30;99.90;;;;;;5034408;28;20968;-56
2021/11/06 06:20:04;;;;;;;374.85;47.42;;;4.40;99.90;;;;;;5041171;28;20963;-54
2021/11/06 06:22:29;;;;;;;367.10;42.90;;;4.40;99.90;;;;;;5039134;28;20910;-55
2021/11/06 06:24:55;;;;;;;174.07;23.57;;;4.60;99.90;;;;;;5030650;28;20420;-55
2021/11/06 06:27:21;;;;;;;192.73;27.23;;;4.40;99.90;;;;;;5041623;28;20414;-56
2021/11/06 06:29:46;;;;;;;126.20;21.77;;;4.40;99.90;;;;;;5068880;28;20422;-54
2021/11/06 06:32:12;;;;;;;98.47;19.83;;;4.40;99.90;;;;;;5040762;28;20413;-57
2021/11/06 06:34:38;;;;;;;157.93;27.40;;;4.30;99.90;;;;;;5029427;28;20395;-59
2021/11/06 06:37:03;;;;;;;119.82;22.35;;;4.20;99.90;;;;;;5041380;28;20404;-56
2021/11/06 06:39:29;;;;;;;151.52;24.45;;;4.20;99.90;;;;;;5076101;28;20394;-55
2021/11/06 06:41:55;;;;;;;129.70;24.10;;;4.20;99.90;;;;;;5038061;28;20408;-56
2021/11/06 06:44:20;;;;;;;126.55;21.98;;;4.20;99.90;;;;;;5040271;28;20557;-56
2021/11/06 06:46:46;;;;;;;203.23;38.17;;;4.30;99.90;;;;;;5030903;28;20427;-56
2021/11/06 06:49:12;;;;;;;204.85;31.63;;;4.30;99.90;;;;;;5037493;28;20405;-57
2021/11/06 06:51:38;;;;;;;159.30;23.73;;;4.30;99.90;;;;;;5045658;28;20401;-55
2021/11/06 06:54:04;;;;;;;198.25;29.70;;;4.10;99.90;;;;;;5038116;28;20437;-56
2021/11/06 06:56:30;;;;;;;156.20;24.98;;;4.10;99.90;;;;;;5039678;28;20726;-55
2021/11/06 06:58:56;;;;;;;148.77;25.30;;;4.20;99.90;;;;;;5035964;28;20875;-56
2021/11/06 07:01:22;;;;;;;171.77;26.17;;;4.20;99.90;;;;;;5042492;28;20416;-55
2021/11/06 07:03:47;;;;;;;162.37;22.73;;;4.10;99.90;;;;;;5046047;28;20409;-55
2021/11/06 07:06:13;;;;;;;229.98;30.77;;;4.00;99.90;;;;;;5043210;28;20508;-56
2021/11/06 07:08:39;;;;;;;236.13;33.13;;;4.00;99.90;;;;;;5044830;28;20405;-55
2021/11/06 07:11:04;;;;;;;157.65;25.15;;;4.10;99.90;;;;;;5034161;28;20517;-55
2021/11/06 07:13:33;;;;;;;232.23;29.73;;;4.10;99.90;;;;;;5044021;28;20757;-56
2021/11/06 07:15:59;;;;;;;210.27;29.02;;;4.20;99.90;;;;;;5037801;28;20411;-55
2021/11/06 07:18:24;;;;;;;165.02;23.05;;;5.20;99.90;;;;;;5035073;28;20395;-55
2021/11/06 07:20:50;;;;;;;133.07;22.57;;;4.20;99.90;;;;;;5061481;28;20484;-55
2021/11/06 07:23:16;;;;;;;118.28;19.40;;;4.30;99.90;;;;;;5035994;28;20575;-55
2021/11/06 07:25:41;;;;;;;153.68;27.02;;;4.20;99.90;;;;;;5035377;28;20543;-60
2021/11/06 07:28:07;;;;;;;243.93;31.30;;;4.10;99.90;;;;;;5035202;28;20612;-56
2021/11/06 07:30:33;;;;;;;249.55;30.45;;;4.30;99.90;;;;;;5046649;28;20752;-56
2021/11/06 07:32:59;;;;;;;138.60;23.90;;;4.30;99.90;;;;;;5029771;28;20403;-58
2021/11/06 07:35:25;;;;;;;130.03;20.77;;;4.20;99.90;;;;;;5029626;28;20402;-56
2021/11/06 07:37:50;;;;;;;164.75;27.48;;;4.10;99.90;;;;;;5030379;28;20410;-55
2021/11/06 07:40:16;;;;;;;170.90;23.95;;;4.00;99.90;;;;;;5037111;28;20452;-55
2021/11/06 07:42:44;;;;;;;476.43;54.50;;;4.60;99.90;;;;;;5045246;28;20794;-60
2021/11/06 07:45:12;;;;;;;342.77;34.85;;;4.20;99.90;;;;;;5038189;28;20904;-55
2021/11/06 07:47:38;;;;;;;199.00;29.85;;;4.80;99.90;;;;;;5037511;28;20565;-56
2021/11/06 07:50:05;;;;;;;208.02;29.50;;;4.50;99.90;;;;;;5037562;28;20968;-56
2021/11/06 07:52:31;;;;;;;254.77;31.63;;;4.60;99.90;;;;;;5039392;28;20959;-56
2021/11/06 07:54:56;;;;;;;254.45;37.53;;;4.70;99.90;;;;;;5048874;28;20413;-55
2021/11/06 07:57:22;;;;;;;224.03;31.33;;;4.80;99.90;;;;;;5048842;28;20563;-58
2021/11/06 07:59:48;;;;;;;121.47;24.45;;;4.80;99.90;;;;;;5040241;28;20387;-58
2021/11/06 08:02:14;;;;;;;240.23;32.83;;;4.90;99.90;;;;;;5034860;28;20414;-56
2021/11/06 08:04:40;;;;;;;281.60;33.13;;;4.80;99.90;;;;;;5037021;28;20432;-55
2021/11/06 08:07:05;;;;;;;243.80;35.20;;;4.80;99.90;;;;;;5041150;28;20492;-55
2021/11/06 08:09:31;;;;;;;225.38;29.35;;;4.90;99.90;;;;;;5044286;28;20892;-55
2021/11/06 08:11:57;;;;;;;174.53;26.23;;;4.70;99.90;;;;;;5049978;28;20429;-55
2021/11/06 08:14:22;;;;;;;148.75;24.73;;;4.80;99.90;;;;;;5036660;28;20820;-53
2021/11/06 08:16:50;;;;;;;132.43;27.13;;;4.80;99.90;;;;;;5044908;28;20395;-54
2021/11/06 08:19:16;;;;;;;142.80;26.92;;;4.90;99.90;;;;;;5031380;28;20391;-54
2021/11/06 08:21:42;;;;;;;194.75;30.73;;;5.00;99.90;;;;;;5039468;28;20425;-55
2021/11/06 08:24:09;;;;;;;170.88;28.65;;;5.10;99.90;;;;;;5036605;28;20460;-53
2021/11/06 08:26:34;;;;;;;172.43;29.07;;;5.20;99.90;;;;;;5035654;28;20412;-54
2021/11/06 08:29:00;;;;;;;163.50;26.58;;;5.50;99.90;;;;;;5033887;28;20407;-55
2021/11/06 08:31:26;;;;;;;139.40;24.47;;;5.50;99.90;;;;;;5033305;28;20405;-54
2021/11/06 08:33:52;;;;;;;157.80;26.77;;;5.60;99.90;;;;;;5034935;28;20416;-54
2021/11/06 08:36:17;;;;;;;163.43;24.85;;;6.10;99.90;;;;;;5047843;28;20393;-53
2021/11/06 08:38:43;;;;;;;173.17;24.77;;;5.40;99.90;;;;;;5030481;28;20917;-54
2021/11/06 08:41:09;;;;;;;190.82;27.45;;;5.50;99.90;;;;;;5035963;28;20530;-54
2021/11/06 08:43:35;;;;;;;97.65;19.38;;;5.60;99.90;;;;;;5039442;28;20800;-54
2021/11/06 08:46:02;;;;;;;102.03;22.77;;;5.70;99.90;;;;;;5038428;28;20873;-54
2021/11/06 08:48:27;;;;;;;95.70;22.77;;;5.70;99.90;;;;;;5045963;28;20556;-53
2021/11/06 08:50:53;;;;;;;134.70;22.40;;;5.70;99.90;;;;;;5030741;28;20879;-55
2021/11/06 08:53:19;;;;;;;168.52;30.55;;;6.40;99.90;;;;;;5037428;28;20482;-53
2021/11/06 08:55:45;;;;;;;125.00;24.98;;;5.60;99.90;;;;;;5055446;28;20408;-59
2021/11/06 08:58:11;;;;;;;134.17;23.77;;;5.70;99.90;;;;;;5032589;28;20418;-56
2021/11/06 09:00:40;;;;;;;136.65;23.80;;;5.70;99.90;;;;;;5036069;28;20510;-54
2021/11/06 09:03:09;;;;;;;78.20;20.52;;;5.70;99.90;;;;;;5065378;28;20490;-56
2021/11/06 09:05:37;;;;;;;89.10;20.47;;;5.50;99.90;;;;;;5033808;28;20502;-55
2021/11/06 09:08:04;;;;;;;78.18;19.75;;;5.50;99.90;;;;;;5033990;28;21031;-56
2021/11/06 09:10:30;;;;;;;69.43;19.80;;;5.40;99.90;;;;;;5035671;28;20429;-54
2021/11/06 09:12:56;;;;;;;66.40;18.70;;;5.60;99.90;;;;;;5033412;28;20884;-54
2021/11/06 09:15:22;;;;;;;74.78;19.52;;;5.80;99.90;;;;;;5035965;28;20458;-55
2021/11/06 09:17:49;;;;;;;63.10;21.27;;;5.80;99.90;;;;;;5033710;28;20835;-59
2021/11/06 09:20:15;;;;;;;67.20;20.00;;;5.90;99.90;;;;;;5039204;28;20450;-54
2021/11/06 09:22:41;;;;;;;47.63;20.70;;;6.10;99.90;;;;;;5030658;28;20438;-54
2021/11/06 09:25:08;;;;;;;77.70;22.08;;;6.20;99.90;;;;;;5038854;28;20405;-54
2021/11/06 09:27:34;;;;;;;110.50;24.25;;;6.40;99.90;;;;;;5037643;28;20403;-54
2021/11/06 09:30:01;;;;;;;85.60;20.00;;;6.30;99.90;;;;;;5042466;28;20476;-54
2021/11/06 09:32:26;;;;;;;87.97;21.55;;;6.30;99.90;;;;;;5032058;28;20403;-54
2021/11/06 09:34:52;;;;;;;53.83;20.57;;;6.20;99.90;;;;;;5033276;28;20409;-54
2021/11/06 09:37:18;;;;;;;64.30;20.33;;;6.30;99.90;;;;;;5032266;28;20607;-54
2021/11/06 09:39:44;;;;;;;77.50;21.48;;;6.30;99.90;;;;;;5034251;28;20401;-54
2021/11/06 09:42:10;;;;;;;79.47;20.33;;;6.20;99.90;;;;;;5042041;28;20526;-53
2021/11/06 09:44:36;;;;;;;61.80;20.65;;;6.10;99.90;;;;;;5037148;28;21108;-54
2021/11/06 09:47:09;;;;;;;52.13;20.00;;;6.30;99.90;;;;;;5043616;28;20453;-54
2021/11/06 09:49:36;;;;;;;45.38;19.70;;;6.30;99.90;;;;;;5052208;28;20418;-54
2021/11/06 09:52:02;;;;;;;63.42;19.77;;;6.50;99.90;;;;;;5034779;28;20865;-53
2021/11/06 09:54:30;;;;;;;67.75;20.80;;;6.50;99.90;;;;;;5035569;28;20411;-54
2021/11/06 09:56:56;;;;;;;43.28;18.70;;;6.50;99.90;;;;;;5038525;28;20409;-53
2021/11/06 09:59:22;;;;;;;57.92;20.00;;;6.70;99.90;;;;;;5040581;28;20481;-54
2021/11/06 10:01:49;;;;;;;53.00;20.70;;;6.70;99.90;;;;;;5042531;28;20466;-58
2021/11/06 10:04:15;;;;;;;52.90;19.52;;;6.70;99.90;;;;;;5035147;28;20413;-54
2021/11/06 10:06:45;;;;;;;54.60;20.90;;;6.80;99.90;;;;;;5036876;28;20462;-54
2021/11/06 10:09:12;;;;;;;55.87;20.73;;;6.70;99.90;;;;;;5035809;28;20414;-54
2021/11/06 10:11:44;;;;;;;80.05;21.88;;;6.90;99.90;;;;;;5029324;28;20415;-54
2021/11/06 10:14:16;;;;;;;70.65;23.08;;;7.00;99.90;;;;;;5030797;28;20489;-56
2021/11/06 10:17:01;;;;;;;74.47;22.25;;;6.90;99.90;;;;;;5032670;28;20419;-54
2021/11/06 10:19:29;;;;;;;60.90;21.13;;;6.90;99.90;;;;;;5032634;28;20410;-54
2021/11/06 10:22:15;;;;;;;45.80;21.05;;;6.90;99.90;;;;;;5033063;28;20459;-54
2021/11/06 10:24:50;;;;;;;46.70;20.65;;;6.90;99.90;;;;;;5033191;28;20415;-54
2021/11/06 10:27:37;;;;;;;57.22;22.08;;;7.10;99.90;;;;;;5030595;28;20501;-54
2021/11/06 10:30:16;;;;;;;59.60;21.33;;;7.20;99.90;;;;;;5038082;28;20422;-55
2021/11/06 10:32:57;;;;;;;58.92;20.45;;;7.10;99.90;;;;;;5031007;28;20407;-54
2021/11/06 10:35:25;;;;;;;43.58;19.73;;;7.00;99.90;;;;;;5031302;28;20417;-54
2021/11/06 10:37:59;;;;;;;55.10;19.60;;;7.10;99.90;;;;;;5030103;28;20414;-60
2021/11/06 10:40:30;;;;;;;55.90;21.27;;;7.10;99.90;;;;;;5069692;28;20460;-59
2021/11/06 10:42:57;;;;;;;44.43;19.90;;;7.30;99.90;;;;;;5036232;28;20408;-54
2021/11/06 10:45:25;;;;;;;39.28;19.05;;;7.40;99.90;;;;;;5034503;28;20415;-54
2021/11/06 10:47:53;;;;;;;61.97;23.10;;;7.50;99.90;;;;;;5032495;28;20899;-61
2021/11/06 10:50:39;;;;;;;47.53;22.45;;;7.50;99.90;;;;;;5036808;28;20969;-55
2021/11/06 10:53:06;;;;;;;47.50;21.10;;;7.50;99.90;;;;;;5039176;28;20779;-55
2021/11/06 10:55:33;;;;;;;49.47;23.52;;;7.70;99.90;;;;;;5037129;28;20413;-55
2021/11/06 10:57:59;;;;;;;48.25;23.90;;;7.80;99.90;;;;;;5036188;28;20416;-54
2021/11/06 11:00:25;;;;;;;45.40;22.75;;;7.80;99.90;;;;;;5035608;28;20890;-56
2021/11/06 11:02:51;;;;;;;42.17;22.13;;;8.10;99.90;;;;;;5044042;28;20444;-58
2021/11/06 11:05:35;;;;;;;55.08;28.40;;;8.30;99.90;;;;;;5031483;28;20425;-55
2021/11/06 11:08:07;;;;;;;44.80;23.23;;;8.20;99.90;;;;;;5046443;28;20492;-54
2021/11/06 11:10:35;;;;;;;49.63;23.30;;;8.30;99.90;;;;;;5031749;28;20437;-57
2021/11/06 11:13:14;;;;;;;44.80;21.83;;;8.10;99.90;;;;;;5029617;28;20399;-55
2021/11/06 11:15:47;;;;;;;47.53;24.10;;;8.10;99.90;;;;;;5038283;28;20402;-56
2021/11/06 11:18:36;;;;;;;47.83;24.20;;;7.90;99.90;;;;;;5039079;28;20478;-54
2021/11/06 11:21:17;;;;;;;52.72;25.10;;;7.90;99.90;;;;;;5042234;28;20454;-55
2021/11/06 11:23:51;;;;;;;51.88;24.50;;;8.10;99.90;;;;;;5042194;28;20494;-54
2021/11/06 11:26:22;;;;;;;53.50;23.00;;;8.20;99.90;;;;;;5042141;28;20406;-54
2021/11/06 11:28:49;;;;;;;54.85;25.13;;;8.20;99.90;;;;;;5037175;28;20952;-56
2021/11/06 11:31:16;;;;;;;48.85;24.83;;;8.00;99.90;;;;;;5032147;28;20451;-54
2021/11/06 11:33:44;;;;;;;44.78;22.95;;;7.90;99.90;;;;;;5038196;28;20886;-55
2021/11/06 11:36:12;;;;;;;50.05;24.70;;;8.10;99.90;;;;;;5040202;28;20416;-52
2021/11/06 11:38:39;;;;;;;50.90;24.02;;;8.10;99.90;;;;;;5036242;28;20406;-56
2021/11/06 11:41:48;;;;;;;52.38;26.27;;;8.10;99.90;;;;;;5032381;28;20927;-55
2021/11/06 11:44:38;;;;;;;52.15;24.42;;;8.30;99.90;;;;;;5038563;28;20421;-55
2021/11/06 11:47:28;;;;;;;48.95;24.23;;;8.70;99.90;;;;;;5035173;28;20418;-55
2021/11/06 11:49:57;;;;;;;40.63;21.63;;;8.90;99.90;;;;;;5033791;28;20864;-59
2021/11/06 11:52:32;;;;;;;45.95;22.60;;;8.70;99.90;;;;;;5034548;28;20408;-54
2021/11/06 11:55:07;;;;;;;46.90;21.50;;;8.50;99.90;;;;;;5066790;28;20429;-55
2021/11/06 11:57:37;;;;;;;45.90;23.85;;;8.70;99.90;;;;;;5038072;28;20813;-54
2021/11/06 12:00:23;;;;;;;48.35;23.50;;;9.00;99.90;;;;;;5037945;28;20406;-54
2021/11/06 12:03:00;;;;;;;49.22;24.90;;;9.30;99.90;;;;;;5038483;28;20405;-55
2021/11/06 12:05:26;;;;;;;46.17;23.10;;;9.30;99.90;;;;;;5036155;28;20423;-57
2021/11/06 12:08:10;;;;;;;49.47;22.33;;;9.30;99.90;;;;;;5042274;28;20434;-57
2021/11/06 12:10:40;;;;;;;44.42;22.42;;;9.40;99.90;;;;;;5035766;28;20906;-57
2021/11/06 12:13:26;;;;;;;50.08;25.08;;;9.60;99.90;;;;;;5035797;28;20414;-58
2021/11/06 12:16:04;;;;;;;47.00;25.23;;;9.80;99.90;;;;;;5035824;28;20444;-57
2021/11/06 12:18:33;;;;;;;45.50;25.13;;;9.90;99.90;;;;;;5041519;28;20405;-59
2021/11/06 12:21:22;;;;;;;51.63;25.08;;;9.90;99.90;;;;;;5040252;28;20481;-57
2021/11/06 12:23:57;;;;;;;52.42;26.35;;;9.80;99.90;;;;;;5041542;28;20563;-59
2021/11/06 12:26:28;;;;;;;51.63;25.27;;;9.70;99.90;;;;;;5036816;28;20448;-57
2021/11/06 12:29:06;;;;;;;53.35;25.67;;;9.80;99.90;;;;;;5040992;28;20414;-57
2021/11/06 12:31:40;;;;;;;47.53;25.23;;;10.00;99.90;;;;;;5038089;28;20443;-57
2021/11/06 12:34:07;;;;;;;46.75;24.85;;;10.00;99.90;;;;;;5039768;28;20420;-57
2021/11/06 12:36:39;;;;;;;49.15;24.60;;;10.00;99.90;;;;;;5041386;28;20447;-59